Detalii statie GENERAL AGRO [00001CEA]

Toti senzorii

Date Temperatura solului [C]Precipitatii [mm]Voltaj baterie [mV]HC Air temperature [C]HC Relative humidity [%]Punctul de roua [C]
medieminmaxsumaultimamedieminmaxmediemediemin
2018-02-23 13:00:00 1.9 1.8 2 0 6942 1.03 0.64 1.46 0 0 0
2018-02-23 13:30:00 2 2 2.1 0.4 6904 1.44 1.23 1.67 0 0 0
2018-02-23 14:00:00 2.2 2.1 2.3 0.4 6894 1.3 1.2 1.46 0 0 0
2018-02-23 14:30:00 2.2 2.2 2.3 0.4 6864 1.34 1.19 1.44 0 0 0
2018-02-23 15:00:00 2.3 2.3 2.4 0.2 6854 1.32 1.17 1.42 0 0 0
2018-02-23 15:30:00 2.3 2.3 2.5 0.2 6816 1.27 1.19 1.32 0 0 0
2018-02-23 16:00:00 2.3 2.3 2.4 0.2 6806 1.16 1.14 1.21 0 0 0
2018-02-23 16:30:00 2.3 2.2 2.4 0.2 6786 1.13 1.11 1.19 0 0 0
2018-02-23 17:00:00 2.3 2.3 2.4 0 6776 1.07 1.02 1.12 0 0 0
2018-02-23 17:30:00 2.2 2.2 2.3 0 6766 0.95 0.82 1.02 0 0 0
2018-02-23 18:00:00 2.2 2.1 2.3 0 6766 0.66 0.6 0.74 0 0 0
2018-02-23 18:30:00 2.2 2.2 2.3 0 6748 0.47 0.35 0.57 0 0 0
2018-02-23 19:00:00 2.1 2.1 2.3 0 6748 0.24 0.17 0.35 0 0 0
2018-02-23 19:30:00 2.1 2.1 2.3 0 6728 0.12 0.06 0.17 0 0 0
2018-02-23 20:00:00 2.1 2 2.2 0 6728 -0.04 -0.1 0.03 0 0 0
2018-02-23 20:30:00 2.1 2 2.2 0 6718 -0.15 -0.2 -0.12 0 0 0
2018-02-23 21:00:00 2.1 2 2.2 0 6728 -0.25 -0.29 -0.18 0 0 0
2018-02-23 21:30:00 2 2 2.1 0 6718 -0.29 -0.31 -0.27 0 0 0
2018-02-23 22:00:00 2 2 2.1 0 6718 -0.28 -0.3 -0.26 0 0 0
2018-02-23 22:30:00 2 2 2.1 0 6708 -0.31 -0.32 -0.29 0 0 0
2018-02-23 23:00:00 1.9 1.9 2.1 0 6718 -0.32 -0.34 -0.29 0 0 0
2018-02-23 23:30:00 1.9 1.9 2.1 0 6698 -0.29 -0.35 -0.27 0 0 0
2018-02-24 00:00:00 1.9 1.8 2 0 6708 -0.3 -0.43 -0.24 0 0 0
2018-02-24 00:30:00 1.9 1.9 2 0 6698 -0.43 -0.47 -0.41 0 0 0
2018-02-24 01:00:00 1.9 1.9 2 0 6698 -0.34 -0.39 -0.3 0 0 0
2018-02-24 01:30:00 1.9 1.8 2 0 6688 -0.31 -0.35 -0.28 0 0 0
2018-02-24 02:00:00 1.9 1.8 2 0 6698 -0.37 -0.43 -0.33 0 0 0
2018-02-24 02:30:00 1.9 1.8 2.2 0 6688 -0.37 -0.42 -0.33 0 0 0
2018-02-24 03:00:00 1.9 1.8 2 0 6688 -0.37 -0.39 -0.34 0 0 0
2018-02-24 03:30:00 1.9 1.9 2 0 6688 -0.43 -0.52 -0.37 0 0 0
2018-02-24 04:00:00 1.8 1.7 2 0 6688 -0.6 -0.69 -0.52 0 0 0
2018-02-24 04:30:00 1.9 1.9 2 0 6678 -0.61 -0.65 -0.59 0 0 0
2018-02-24 05:00:00 1.8 1.8 1.9 0 6678 -0.64 -0.66 -0.63 0 0 0
2018-02-24 05:30:00 1.9 1.7 2 0 6678 -0.67 -0.69 -0.66 0 0 0
2018-02-24 06:00:00 1.9 1.8 2 0 6678 -0.65 -0.69 -0.62 0 0 0
2018-02-24 06:30:00 1.9 1.8 2 0 6678 -0.69 -0.72 -0.66 0 0 0
2018-02-24 07:00:00 1.8 1.7 2 0 6678 -0.7 -0.75 -0.67 0 0 0
2018-02-24 07:30:00 1.8 1.8 2 0 6668 -0.73 -0.75 -0.71 0 0 0
2018-02-24 08:00:00 1.8 1.7 2 0 6668 -0.71 -0.73 -0.7 49.94 0
2018-02-24 08:30:00 1.8 1.8 2 0 6660 -0.73 -0.76 -0.71 100 -0.6 -0.6
2018-02-24 09:00:00 1.8 1.8 1.9 0 6668 -0.72 -0.76 -0.7 100 -0.6 -0.6
2018-02-24 09:30:00 1.8 1.8 1.9 0 6668 -0.7 -0.76 -0.66 100 -0.5 -0.6
2018-02-24 10:00:00 1.8 1.8 2 0 6688 -0.68 -0.77 -0.58 100 -0.5 -0.6
2018-02-24 10:30:00 1.8 1.7 2 0 6708 -0.65 -0.69 -0.61 100 -0.5 -0.5
2018-02-24 11:00:00 1.9 1.8 2 0 6766 -0.44 -0.58 -0.26 100 -0.2 -0.4
2018-02-24 11:30:00 2 2 2.1 0 6756 -0.26 -0.36 -0.17 100 -0.1 -0.2
2018-02-24 12:00:00 2.1 2 2.2 0 6756 -0.06 -0.31 0.07 100 0 -0.2
2018-02-24 12:30:00 2.1 2.1 2.2 0 6718 -0.5 -0.74 -0.17 100 -0.3 -0.6